AirNav   Everest Fuels
 
 1200 users online  

CL03 Airport Towers Nr 1 Heliport
El Segundo, California, USA

GOING TO EL SEGUNDO?


FAA INFORMATION EFFECTIVE 08 OCTOBER 2020

Location

FAA Identifier: CL03
Lat/Long: 33-55-00.8000N 118-23-41.6000W
33-55.013333N 118-23.693333W
33.9168889,-118.3948889
(estimated)
Elevation: 404 ft. / 123 m (estimated)
Variation: 14E (1985)
Time zone: UTC -7 (UTC -8 during Standard Time)
Zip code: 90245

Heliport Operations

Heliport use: Private use. Permission required prior to landing
Activation date: 11/1983
Control tower: no
ARTCC: LOS ANGELES CENTER
FSS: HAWTHORNE FLIGHT SERVICE STATION
Attendance: MON-FRI 0600-0900
Wind indicator: yes
Segmented circle: no
Lights: FOR PERIMETER LGTS CALL 213-647-5327.

Heliport Communications

UNICOM: 123.075
WX ASOS at LAX (1.7 nm NW): PHONE 310-568-1486
WX ASOS at HHR (3 nm E): PHONE 310-973-8930
WX ASOS at SMO (7 nm NW): PHONE 310-392-6453
WX AWOS-3PT at CPM (8 nm E): 127.150 (310-631-4958)
WX ASOS at LGB (13 nm SE): PHONE 562-424-0572
WX ASOS at BUR (17 nm N): PHONE 818-841-1384
WX ASOS at VNY (18 nm N): PHONE 818-904-9213

Nearby radio navigation aids

VOR radial/distance  VOR name  Freq  Var
LAXr103/2.1LOS ANGELES VORTAC113.6015E
SMOr136/6.4SANTA MONICA VOR/DME110.8015E
SLIr280/18.7SEAL BEACH VORTAC115.7015E
VNYr150/19.0VAN NUYS VOR/DME113.1015E
POMr237/31.7POMONA VORTAC110.4015E
SXCr347/32.5SANTA CATALINA VORTAC111.4015E
VTUr095/34.7VENTURA VOR/DME108.2015E
FIMr123/35.8FILLMORE VORTAC112.5015E
ELBr280/36.1EL TORO VOR/DME117.2014E
CMAr102/39.0CAMARILLO VOR/DME115.8015E

Heliport Services

Runway Information

Helipad H1

Dimensions: 74 x 70 ft. / 23 x 21 m
Surface: concrete
Runway edge lights: PERI
Latitude: 33-55.013333N
Longitude: 118-23.693333W
Elevation: 404.0 ft.
Traffic pattern: leftleft

Heliport Ownership and Management from official FAA records

Ownership: Privately-owned
Owner: ROCKWELL INTL CORP
2230 E IMPERIAL HWY
EL SEGUNDO, CA 90243
Phone 213-647-5327
PACIFIC REALTY ASSOCIATES.
Manager: N. M. THOMAS
2230 E IMPERIAL HWY
EL SEGUNDO, CA 90243
Phone 213-647-5327

Additional Remarks

FOR CD CTC LOS ANGELES ARTCC AT 661-575-2079.

Instrument Procedures

There are no published instrument procedures at CL03.

Some nearby airports with instrument procedures:

KLAX - Los Angeles International Airport (2 nm NW)
KHHR - Jack Northrop Field/Hawthorne Municipal Airport (3 nm E)
KSMO - Santa Monica Municipal Airport (7 nm NW)
KTOA - Zamperini Field Airport (7 nm S)
KLGB - Long Beach Airport (Daugherty Field) (13 nm SE)
KBUR - Bob Hope Airport (17 nm N)
KVNY - Van Nuys Airport (18 nm N)
KSLI - Los Alamitos Army Airfield (19 nm SE)
 
Loc | Ops | Rwys | IFR | FBO | Links
Com | Nav | Svcs | Stats | Notes
Area around CL03 (Airport Towers Nr 1 Heliport)
 
Road maps at: MapQuest Bing Google
 
Aerial photo
No photo
 
Sectional chart

 
Airport distance calculator
Flying to Airport Towers Nr 1 Heliport? Find the distance to fly.

From to CL03

Sunrise and sunset
Times for 21-Oct-2020
 Local
(UTC-7)
 Zulu
(UTC)
Morning civil twilight06:4013:40
Sunrise07:0514:05
Sunset18:1101:11
Evening civil twilight18:3601:36

Current date and time
Zulu (UTC)  21-Oct-2020 22:22:40
Local (UTC-7)  21-Oct-2020 15:22:40
 
METAR
KLAX 212153Z 26010KT 5SM HZ FEW021 21/15 A2980 RMK AO2 SLP090 T02110150
KHHR 
3nm E 
212153Z 24008KT 7SM CLR 22/15 A2980 RMK AO2 SLP090 T02220150
KSMO 
7nm NW 
212151Z 23007KT 4SM HZ OVC017 21/16 A2980 RMK AO2 SLP090 T02060156
KTOA 
9nm SE 
212147Z 25008KT 10SM FEW015 22/16 A2980
KCQT 
11nm NE 
212152Z AUTO VRB03KT 4SM HZ CLR 23/16 A2979 RMK AO2 SLP083 T02330156
KLGB 
14nm SE 
212153Z 19006KT 10SM CLR 22/15 A2980 RMK AO2 SLP089 T02220150
KBUR 
17nm N 
212153Z 16009KT 4SM HZ CLR 24/14 A2979 RMK AO2 SLPNO T02390144
KVNY 
19nm N 
212151Z AUTO VRB03KT 5SM HZ CLR 27/14 A2978 RMK AO2 SLP077 T02670139
TAF
KLAX 211724Z 2118/2224 14005KT 3SM BR OVC015 FM212000 26012KT P6SM SCT015 FM220100 26010KT P6SM BKN014 FM220300 26008KT 6SM BR OVC009 FM220800 VRB03KT P6SM OVC014 FM221700 19006KT P6SM OVC020 FM222100 25010KT P6SM BKN025
KSMO 
7nm NW 
211724Z 2118/2218 31003KT 3SM HZ OVC012 FM212000 23008KT 6SM HZ SCT015 FM220300 VRB03KT P6SM SKC FM220600 VRB03KT 5SM BR OVC008 FM220900 VRB03KT 6SM BR OVC012 FM221500 05004KT P6SM OVC015
KLGB 
14nm SE 
211724Z 2118/2218 09003KT 3SM HZ OVC013 FM211900 19008KT P6SM SCT016 FM212300 25006KT P6SM SKC FM220400 VRB03KT P6SM BKN009 FM220800 VRB03KT P6SM OVC016 FM221600 17005KT P6SM BKN020
KBUR 
17nm N 
212004Z 2120/2218 VRB06KT 4SM HZ SKC FM212100 17008KT P6SM SKC FM220300 VRB03KT P6SM SKC FM220500 VRB03KT 6SM BR BKN008 FM221000 VRB03KT P6SM OVC014
KVNY 
19nm N 
211724Z 2118/2218 00000KT 3SM HZ SCT011 FM212100 15008KT P6SM SKC FM220300 VRB03KT P6SM SKC FM220700 VRB03KT P6SM OVC009 FM221100 VRB03KT P6SM OVC014
NOTAMs
Click for the latest NOTAMs
NOTAMs are issued by the DoD/FAA and will open in a separate window not controlled by AirNav.

 

 
 

Would you like to see your business listed on this page?

 If your business provides an interesting product or service to pilots, flight crews, aircraft, or users of the Airport Towers Nr 1 Heliport, you should consider listing it here.  To start the listing process, click on the button below
 
Add a business
 

Other Pages about Airport Towers Nr 1 Heliport

Update a link
 
Copyright © AirNav, LLC. All rights reserved. Privacy Policy  Contact